Time;durP1;ratioP1;P1;durP2;ratioP2;P2;SDS_P1;SDS_P2;PMS_P1;PMS_P2;Temp;Humidity;BMP_temperature;BMP_pressure;BME280_temperature;BME280_humidity;BME280_pressure;Samples;Min_cycle;Max_cycle;Signal;HPM_P1;HPM_P2
2022/09/23 00:01:15;;;;;;;10.33;7.80;;;10.40;99.90;;;;;;5074904;28;20526;-74
2022/09/23 00:03:44;;;;;;;10.03;8.20;;;10.40;99.90;;;;;;5081828;28;20289;-75
2022/09/23 00:06:17;;;;;;;10.37;7.37;;;10.40;99.90;;;;;;5074816;28;20659;-75
2022/09/23 00:08:45;;;;;;;10.07;7.97;;;10.40;99.90;;;;;;5075434;28;20262;-74
2022/09/23 00:11:17;;;;;;;11.27;8.27;;;10.30;99.90;;;;;;5079572;28;20196;-74
2022/09/23 00:13:46;;;;;;;15.73;8.00;;;10.20;99.90;;;;;;5075878;28;20280;-74
2022/09/23 00:16:16;;;;;;;9.67;7.30;;;10.20;99.90;;;;;;5076925;28;20305;-74
2022/09/23 00:18:43;;;;;;;8.90;7.87;;;10.10;99.90;;;;;;5057919;28;20270;-74
2022/09/23 00:21:13;;;;;;;11.70;7.63;;;10.10;99.90;;;;;;5076421;28;20226;-74
2022/09/23 00:23:42;;;;;;;9.33;7.50;;;10.10;99.90;;;;;;5064832;28;20497;-74
2022/09/23 00:26:12;;;;;;;10.53;7.67;;;10.10;99.90;;;;;;5076787;28;20216;-73
2022/09/23 00:28:39;;;;;;;8.17;6.87;;;10.00;99.90;;;;;;5078651;28;20234;-74
2022/09/23 00:31:11;;;;;;;12.93;7.47;;;10.00;99.90;;;;;;5077417;28;20238;-74
2022/09/23 00:33:39;;;;;;;10.60;7.10;;;10.00;99.90;;;;;;5078534;28;20227;-74
2022/09/23 00:36:15;;;;;;;8.90;6.47;;;10.00;99.90;;;;;;5077352;28;20222;-74
2022/09/23 00:38:44;;;;;;;10.47;7.53;;;10.00;99.90;;;;;;5077924;28;20302;-74
2022/09/23 00:41:14;;;;;;;11.10;7.13;;;10.00;99.90;;;;;;5083440;28;20217;-75
2022/09/23 00:43:41;;;;;;;9.83;7.23;;;10.00;99.90;;;;;;5074899;28;20214;-75
2022/09/23 00:46:12;;;;;;;12.63;7.50;;;10.00;99.90;;;;;;5079715;28;20302;-75
2022/09/23 00:48:42;;;;;;;10.20;8.90;;;10.00;99.90;;;;;;5062413;28;20289;-74
2022/09/23 00:51:20;;;;;;;10.77;9.13;;;9.90;99.90;;;;;;5074021;28;20600;-75
2022/09/23 00:53:49;;;;;;;12.40;9.07;;;10.00;99.90;;;;;;5083038;28;20315;-74
2022/09/23 00:56:18;;;;;;;11.20;9.70;;;10.00;99.90;;;;;;5078086;28;20204;-75
2022/09/23 00:58:48;;;;;;;15.47;9.87;;;10.00;99.90;;;;;;5076317;28;20345;-75
2022/09/23 01:01:18;;;;;;;11.53;9.40;;;10.00;99.90;;;;;;5082533;28;20212;-73
2022/09/23 01:03:46;;;;;;;10.80;9.30;;;10.00;99.90;;;;;;5074034;28;20313;-75
2022/09/23 01:06:13;;;;;;;12.73;8.97;;;9.90;99.90;;;;;;5074176;28;20219;-74
2022/09/23 01:08:42;;;;;;;10.73;8.30;;;9.90;99.90;;;;;;5080716;28;20226;-74
2022/09/23 01:11:20;;;;;;;11.50;9.03;;;9.90;99.90;;;;;;5078777;28;20405;-73
2022/09/23 01:14:05;;;;;;;9.87;8.87;;;9.90;99.90;;;;;;5076080;28;20829;-73
2022/09/23 01:16:42;;;;;;;10.97;9.70;;;9.80;99.90;;;;;;5075911;28;20258;-73
2022/09/23 01:19:29;;;;;;;11.93;9.10;;;9.80;99.90;;;;;;5079517;28;20234;-76
2022/09/23 01:22:12;;;;;;;11.53;10.37;;;9.80;99.90;;;;;;5075784;28;20213;-75
2022/09/23 01:25:02;;;;;;;14.60;12.07;;;9.70;99.90;;;;;;5076035;28;20316;-74
2022/09/23 01:28:08;;;;;;;15.87;13.40;;;9.70;99.90;;;;;;5073649;28;20202;-75
2022/09/23 01:30:42;;;;;;;14.40;12.63;;;9.70;99.90;;;;;;5078700;28;20278;-74
2022/09/23 01:33:25;;;;;;;13.83;10.77;;;9.60;99.90;;;;;;5078790;28;20273;-75
2022/09/23 01:36:11;;;;;;;12.30;11.00;;;9.60;99.90;;;;;;5074222;28;20207;-74
2022/09/23 01:38:57;;;;;;;15.33;12.20;;;9.60;99.90;;;;;;5077037;28;20237;-74
2022/09/23 01:41:41;;;;;;;16.60;12.90;;;9.60;99.90;;;;;;5079376;28;20208;-74
2022/09/23 01:44:21;;;;;;;13.67;12.27;;;9.60;99.90;;;;;;5078952;28;20310;-75
2022/09/23 01:47:19;;;;;;;14.80;12.47;;;9.60;99.90;;;;;;5083325;28;20240;-74
2022/09/23 01:53:05;;;;;;;14.60;12.40;;;9.50;99.90;;;;;;5077415;28;20205;-76
2022/09/23 01:55:39;;;;;;;12.63;11.17;;;9.40;99.90;;;;;;5079423;28;20295;-74
2022/09/23 01:58:08;;;;;;;14.10;11.97;;;9.40;99.90;;;;;;5082130;28;20297;-75
2022/09/23 02:00:42;;;;;;;15.13;12.00;;;9.30;99.90;;;;;;5077882;28;20215;-75
2022/09/23 02:03:26;;;;;;;14.20;11.70;;;9.30;99.90;;;;;;5080416;28;20233;-75
2022/09/23 02:06:03;;;;;;;13.77;12.03;;;9.30;99.90;;;;;;5081890;28;20275;-75
2022/09/23 02:08:46;;;;;;;14.00;12.60;;;9.30;99.90;;;;;;5081796;28;20213;-75
2022/09/23 02:11:15;;;;;;;15.10;12.67;;;9.30;99.90;;;;;;5062510;28;20249;-74
2022/09/23 02:13:55;;;;;;;15.40;12.60;;;9.30;99.90;;;;;;5062491;28;20271;-76
2022/09/23 02:16:30;;;;;;;13.93;12.40;;;9.30;99.90;;;;;;5064933;28;20217;-75
2022/09/23 02:19:12;;;;;;;13.53;11.50;;;9.30;99.90;;;;;;5076416;28;20202;-74
2022/09/23 02:21:47;;;;;;;15.17;12.23;;;9.20;99.90;;;;;;5074378;28;20213;-74
2022/09/23 02:24:21;;;;;;;13.80;11.80;;;9.20;99.90;;;;;;5076743;28;20209;-74
2022/09/23 02:27:02;;;;;;;15.17;12.10;;;9.20;99.90;;;;;;5058943;28;20303;-75
2022/09/23 02:29:40;;;;;;;18.57;13.30;;;9.20;99.90;;;;;;5084034;28;20225;-75
2022/09/23 02:32:25;;;;;;;14.97;11.57;;;9.10;99.90;;;;;;5084435;28;20679;-75
2022/09/23 02:35:04;;;;;;;15.43;11.47;;;9.10;99.90;;;;;;5077608;28;20239;-74
2022/09/23 02:37:41;;;;;;;14.07;11.10;;;9.00;99.90;;;;;;5059993;28;20209;-74
2022/09/23 02:40:25;;;;;;;13.53;11.47;;;9.00;99.90;;;;;;5057890;28;20219;-75
2022/09/23 02:43:07;;;;;;;15.43;12.30;;;9.00;99.90;;;;;;5081994;28;20206;-75
2022/09/23 02:45:37;;;;;;;12.87;11.00;;;9.00;99.90;;;;;;5076352;28;20293;-75
2022/09/23 02:48:11;;;;;;;15.20;11.87;;;9.00;99.90;;;;;;5080803;28;20695;-74
2022/09/23 02:50:38;;;;;;;17.37;12.23;;;9.00;99.90;;;;;;5078239;28;20245;-76
2022/09/23 02:53:07;;;;;;;14.60;11.60;;;9.10;99.90;;;;;;5078604;28;20210;-75
2022/09/23 02:55:33;;;;;;;13.13;11.70;;;9.10;99.90;;;;;;5078578;28;20220;-75
2022/09/23 02:58:02;;;;;;;13.50;11.60;;;9.00;99.90;;;;;;5077859;28;20191;-75
2022/09/23 03:00:48;;;;;;;16.00;11.93;;;9.10;99.90;;;;;;5081097;28;20205;-76
2022/09/23 03:03:37;;;;;;;15.97;11.73;;;9.10;99.90;;;;;;5076916;28;20241;-74
2022/09/23 03:06:21;;;;;;;15.03;12.23;;;9.10;99.90;;;;;;5079559;28;20201;-75
2022/09/23 03:08:57;;;;;;;17.13;12.13;;;9.20;99.90;;;;;;5078824;28;20217;-75
2022/09/23 03:11:24;;;;;;;12.87;11.00;;;9.20;99.90;;;;;;5077966;28;20214;-75
2022/09/23 03:14:16;;;;;;;15.47;12.37;;;9.20;99.90;;;;;;5082386;28;20235;-76
2022/09/23 03:17:09;;;;;;;17.13;13.03;;;9.20;99.90;;;;;;5083152;28;20217;-73
2022/09/23 03:19:54;;;;;;;18.73;13.67;;;9.10;99.90;;;;;;5077843;28;20203;-74
2022/09/23 03:22:33;;;;;;;18.80;13.40;;;9.10;99.90;;;;;;5071812;28;20271;-75
2022/09/23 03:25:07;;;;;;;18.83;14.10;;;9.10;99.90;;;;;;5080633;28;20641;-74
2022/09/23 03:27:36;;;;;;;16.53;13.10;;;9.10;99.90;;;;;;5080663;28;20854;-75
2022/09/23 03:30:06;;;;;;;16.53;14.23;;;9.10;99.90;;;;;;5080252;28;20993;-74
2022/09/23 03:32:35;;;;;;;18.87;13.03;;;9.00;99.90;;;;;;5078269;28;20254;-74
2022/09/23 03:35:04;;;;;;;18.10;13.43;;;9.10;99.90;;;;;;5080043;28;20319;-75
2022/09/23 03:37:56;;;;;;;15.63;13.30;;;9.00;99.90;;;;;;5077704;28;20276;-75
2022/09/23 03:40:30;;;;;;;17.67;14.07;;;9.00;99.90;;;;;;5076859;28;20690;-74
2022/09/23 03:43:00;;;;;;;16.50;13.30;;;8.90;99.90;;;;;;5076493;28;20252;-75
2022/09/23 03:45:31;;;;;;;22.23;15.60;;;8.90;99.90;;;;;;5080420;28;20284;-75
2022/09/23 03:47:57;;;;;;;24.20;16.23;;;8.90;99.90;;;;;;5072171;28;20676;-76
2022/09/23 03:50:24;;;;;;;19.97;15.00;;;8.90;99.90;;;;;;5077878;28;20240;-74
2022/09/23 03:52:51;;;;;;;21.83;14.57;;;8.90;99.90;;;;;;5078155;28;20199;-74
2022/09/23 03:55:20;;;;;;;20.67;14.07;;;8.80;99.90;;;;;;5076069;28;20236;-74
2022/09/23 03:57:47;;;;;;;18.40;15.17;;;8.80;99.90;;;;;;5077167;28;20214;-74
2022/09/23 04:00:14;;;;;;;18.57;14.40;;;8.80;99.90;;;;;;5060079;28;20209;-76
2022/09/23 04:02:42;;;;;;;20.20;15.20;;;8.80;99.90;;;;;;5061564;28;20648;-74
2022/09/23 04:05:11;;;;;;;17.73;15.10;;;8.80;99.90;;;;;;5075668;28;20232;-75
2022/09/23 04:07:38;;;;;;;20.20;15.47;;;8.70;99.90;;;;;;5076734;28;20670;-74
2022/09/23 04:10:06;;;;;;;20.57;16.33;;;8.80;99.90;;;;;;5076165;28;20243;-74
2022/09/23 04:12:33;;;;;;;21.33;14.83;;;8.70;99.90;;;;;;5079655;28;20197;-74
2022/09/23 04:15:00;;;;;;;21.93;15.57;;;8.90;99.90;;;;;;5076075;28;20231;-75
2022/09/23 04:17:27;;;;;;;21.83;15.90;;;8.80;99.90;;;;;;5059786;28;20279;-75
2022/09/23 04:19:54;;;;;;;21.90;15.50;;;8.80;99.90;;;;;;5081627;28;20269;-75
2022/09/23 04:22:21;;;;;;;21.57;15.53;;;8.80;99.90;;;;;;5071308;28;20221;-75
2022/09/23 04:24:48;;;;;;;24.07;14.93;;;8.80;99.90;;;;;;5078467;28;20217;-75
2022/09/23 04:27:15;;;;;;;20.13;14.43;;;8.80;99.90;;;;;;5080383;28;20202;-73
2022/09/23 04:29:41;;;;;;;20.83;15.63;;;8.80;99.90;;;;;;5072595;28;20682;-75
2022/09/23 04:32:09;;;;;;;20.77;15.40;;;8.80;99.90;;;;;;5075906;28;20217;-75
2022/09/23 04:34:38;;;;;;;20.53;14.93;;;8.80;99.90;;;;;;5079527;28;20667;-75
2022/09/23 04:37:05;;;;;;;19.13;14.73;;;8.80;99.90;;;;;;5054598;28;20363;-75
2022/09/23 04:39:32;;;;;;;20.20;15.17;;;8.90;99.90;;;;;;5082464;28;20213;-75
2022/09/23 04:41:59;;;;;;;20.80;14.53;;;8.90;99.90;;;;;;5075242;28;20220;-74
2022/09/23 04:44:27;;;;;;;24.47;14.97;;;8.90;99.90;;;;;;5067658;28;20245;-75
2022/09/23 04:46:54;;;;;;;18.67;14.40;;;8.90;99.90;;;;;;5073233;28;20714;-74
2022/09/23 04:49:21;;;;;;;21.20;15.23;;;9.00;99.90;;;;;;5052462;28;20340;-76
2022/09/23 04:51:47;;;;;;;18.77;14.93;;;9.00;99.90;;;;;;5063090;28;20206;-76
2022/09/23 04:54:14;;;;;;;20.10;14.57;;;9.00;99.90;;;;;;5081035;28;20561;-77
2022/09/23 04:56:41;;;;;;;18.07;14.30;;;9.00;99.90;;;;;;5082098;28;20640;-75
2022/09/23 04:59:08;;;;;;;18.57;14.17;;;9.00;99.90;;;;;;5062610;28;20323;-75
2022/09/23 05:01:37;;;;;;;19.13;14.03;;;8.90;99.90;;;;;;5074142;28;20230;-75
2022/09/23 05:04:09;;;;;;;18.97;14.37;;;9.10;99.90;;;;;;5078575;28;20201;-76
2022/09/23 05:06:37;;;;;;;17.13;13.90;;;9.00;99.90;;;;;;5075943;28;20568;-75
2022/09/23 05:09:06;;;;;;;22.23;15.17;;;9.00;99.90;;;;;;5081288;28;20783;-75
2022/09/23 05:11:34;;;;;;;19.10;14.97;;;8.90;99.90;;;;;;5077752;28;20201;-75
2022/09/23 05:14:01;;;;;;;19.80;14.23;;;9.00;99.90;;;;;;5085059;28;20634;-76
2022/09/23 05:16:28;;;;;;;20.33;14.87;;;9.00;99.90;;;;;;5086008;28;20614;-75
2022/09/23 05:18:56;;;;;;;24.40;16.10;;;9.00;99.90;;;;;;5066195;28;20203;-75
2022/09/23 05:21:25;;;;;;;21.73;15.37;;;9.00;99.90;;;;;;5075922;28;20198;-75
2022/09/23 05:23:55;;;;;;;22.13;16.00;;;9.00;99.90;;;;;;5091994;28;20677;-77
2022/09/23 05:26:24;;;;;;;22.37;16.27;;;9.00;99.90;;;;;;5077821;28;20675;-75
2022/09/23 05:28:52;;;;;;;23.33;15.57;;;9.00;99.90;;;;;;5080266;28;20318;-75
2022/09/23 05:31:21;;;;;;;22.80;16.20;;;9.00;99.90;;;;;;5073378;28;20287;-76
2022/09/23 05:33:51;;;;;;;25.90;16.03;;;9.00;99.90;;;;;;5081026;28;20677;-76
2022/09/23 05:36:20;;;;;;;23.13;17.10;;;9.10;99.90;;;;;;5083739;28;20201;-76
2022/09/23 05:38:48;;;;;;;25.43;16.73;;;9.10;99.90;;;;;;5062441;28;20634;-74
2022/09/23 05:41:23;;;;;;;24.37;17.13;;;9.10;99.90;;;;;;5080011;28;20620;-75
2022/09/23 05:43:51;;;;;;;26.47;17.10;;;9.20;99.90;;;;;;5079237;28;20202;-76
2022/09/23 05:46:22;;;;;;;21.90;16.77;;;9.20;99.90;;;;;;5082585;28;20259;-75
2022/09/23 05:48:50;;;;;;;22.47;16.13;;;9.30;99.90;;;;;;5073618;28;20293;-75
2022/09/23 05:51:22;;;;;;;24.70;16.50;;;9.30;99.90;;;;;;5078658;28;20299;-74
2022/09/23 05:53:57;;;;;;;20.37;15.63;;;9.40;99.90;;;;;;5084896;28;20724;-75
2022/09/23 05:56:26;;;;;;;23.60;16.00;;;9.40;99.90;;;;;;5083111;28;20200;-75
2022/09/23 05:58:55;;;;;;;22.47;15.47;;;9.40;99.90;;;;;;5084852;28;20282;-74
2022/09/23 06:01:27;;;;;;;21.30;16.03;;;9.70;99.90;;;;;;5081391;28;20291;-76
2022/09/23 06:03:57;;;;;;;20.97;15.10;;;9.60;99.90;;;;;;5081430;28;20200;-76
2022/09/23 06:06:39;;;;;;;19.90;15.90;;;9.60;99.90;;;;;;5062539;28;20619;-74
2022/09/23 06:09:12;;;;;;;28.77;17.53;;;9.70;99.90;;;;;;5061965;28;20309;-75
2022/09/23 06:11:40;;;;;;;23.37;15.53;;;9.80;99.90;;;;;;5083564;28;20240;-75
2022/09/23 06:14:11;;;;;;;23.17;15.93;;;9.80;99.90;;;;;;5078123;28;20768;-74
2022/09/23 06:16:38;;;;;;;21.47;15.37;;;9.80;99.90;;;;;;5078576;28;20211;-75
2022/09/23 06:19:06;;;;;;;24.17;15.90;;;9.90;99.90;;;;;;5081597;28;20206;-75
2022/09/23 06:21:36;;;;;;;20.67;15.10;;;9.90;99.90;;;;;;5077543;28;20209;-74
2022/09/23 06:24:05;;;;;;;22.80;15.47;;;10.00;99.90;;;;;;5062479;28;20201;-74
2022/09/23 06:26:33;;;;;;;22.27;16.10;;;10.10;99.90;;;;;;5081495;28;20679;-75
2022/09/23 06:29:01;;;;;;;20.47;14.20;;;10.10;99.90;;;;;;5081653;28;20272;-75
2022/09/23 06:31:28;;;;;;;20.83;14.70;;;10.10;99.90;;;;;;5076303;28;20695;-75
2022/09/23 06:33:58;;;;;;;21.27;14.03;;;10.20;99.90;;;;;;5080403;28;20641;-74
2022/09/23 06:36:37;;;;;;;21.30;14.07;;;10.20;99.90;;;;;;5078434;28;20204;-76
2022/09/23 06:39:10;;;;;;;22.30;14.70;;;10.30;99.90;;;;;;5084931;28;20207;-75
2022/09/23 06:41:38;;;;;;;22.03;15.07;;;10.40;99.90;;;;;;5069846;28;20213;-75
2022/09/23 06:44:04;;;;;;;22.43;14.70;;;10.50;99.90;;;;;;5082317;28;21082;-76
2022/09/23 06:46:31;;;;;;;20.40;14.40;;;10.50;99.90;;;;;;5080856;28;20825;-76
2022/09/23 06:48:58;;;;;;;22.63;15.97;;;10.60;99.90;;;;;;5081461;28;21008;-76
2022/09/23 06:51:25;;;;;;;18.33;13.93;;;10.70;99.90;;;;;;5068342;28;20204;-76
2022/09/23 06:53:52;;;;;;;17.53;13.63;;;10.80;99.90;;;;;;5079774;28;20216;-74
2022/09/23 06:56:20;;;;;;;22.43;14.57;;;10.80;99.90;;;;;;5064967;28;20322;-75
2022/09/23 06:58:49;;;;;;;20.40;13.87;;;10.90;99.90;;;;;;5080313;28;20294;-75
2022/09/23 07:01:18;;;;;;;21.23;14.70;;;11.00;99.90;;;;;;5076692;28;20230;-75
2022/09/23 07:03:47;;;;;;;24.40;15.10;;;11.10;99.90;;;;;;5080178;28;20211;-76
2022/09/23 07:06:14;;;;;;;17.37;13.57;;;11.20;99.90;;;;;;5078987;28;20202;-75
2022/09/23 07:08:48;;;;;;;18.73;14.00;;;11.20;99.90;;;;;;5068321;28;20209;-75
2022/09/23 07:11:18;;;;;;;18.37;13.37;;;11.30;99.90;;;;;;5076245;28;20214;-75
2022/09/23 07:13:45;;;;;;;21.60;13.80;;;11.40;99.90;;;;;;5076698;28;20587;-74
2022/09/23 07:16:13;;;;;;;23.33;14.53;;;11.50;99.90;;;;;;5066869;28;20425;-75
2022/09/23 07:18:40;;;;;;;19.33;13.30;;;11.60;99.90;;;;;;5081959;28;20216;-75
2022/09/23 07:21:12;;;;;;;19.37;12.83;;;11.60;99.90;;;;;;5081265;28;20652;-75
2022/09/23 07:23:38;;;;;;;19.23;13.03;;;11.70;99.90;;;;;;5075836;28;20218;-74
2022/09/23 07:26:06;;;;;;;17.07;13.33;;;11.80;99.90;;;;;;5076479;28;20208;-76
2022/09/23 07:28:35;;;;;;;19.97;12.93;;;11.90;99.90;;;;;;5077607;28;20205;-76
2022/09/23 07:31:10;;;;;;;18.10;12.30;;;12.10;99.90;;;;;;5076680;28;20244;-76
2022/09/23 07:33:39;;;;;;;17.33;12.63;;;12.20;99.90;;;;;;5080328;28;20212;-75
2022/09/23 07:36:08;;;;;;;16.27;12.47;;;12.40;99.90;;;;;;5077083;28;20629;-75
2022/09/23 07:38:36;;;;;;;17.10;11.97;;;12.50;99.90;;;;;;5081927;28;20244;-75
2022/09/23 07:41:10;;;;;;;15.23;11.90;;;12.60;99.90;;;;;;5077237;28;20204;-75
2022/09/23 07:43:38;;;;;;;16.97;12.40;;;12.80;99.90;;;;;;5081531;28;20227;-75
2022/09/23 07:46:09;;;;;;;13.10;11.50;;;12.90;99.90;;;;;;5076774;28;20567;-75
2022/09/23 07:48:37;;;;;;;15.30;11.07;;;13.10;99.90;;;;;;5061579;28;20312;-75
2022/09/23 07:51:11;;;;;;;15.70;12.37;;;13.20;99.90;;;;;;5077576;28;20283;-75
2022/09/23 07:53:38;;;;;;;16.07;11.07;;;12.70;99.90;;;;;;5078701;28;20653;-75
2022/09/23 07:56:06;;;;;;;14.73;10.60;;;;;;;;;;5079089;28;20242;-75
2022/09/23 07:58:34;;;;;;;14.17;10.37;;;14.30;99.90;;;;;;5057525;28;20196;-76
2022/09/23 08:01:03;;;;;;;16.47;10.90;;;14.50;99.90;;;;;;5077467;28;20307;-75
2022/09/23 08:03:30;;;;;;;12.10;9.80;;;14.70;99.90;;;;;;5078267;28;20243;-77
2022/09/23 08:06:09;;;;;;;13.90;10.63;;;14.90;99.90;;;;;;5080033;28;20207;-75
2022/09/23 08:08:39;;;;;;;14.33;10.20;;;15.20;99.90;;;;;;5057648;28;20633;-75
2022/09/23 08:11:09;;;;;;;10.57;9.27;;;15.40;99.90;;;;;;5075372;28;20660;-74
2022/09/23 08:13:36;;;;;;;13.33;10.07;;;15.70;99.90;;;;;;5078003;28;20549;-73
2022/09/23 08:16:04;;;;;;;12.98;9.63;;;15.90;99.90;;;;;;5076709;28;20243;-74
2022/09/23 08:18:31;;;;;;;12.07;9.70;;;16.00;99.90;;;;;;5075462;28;20283;-73
2022/09/23 08:20:58;;;;;;;12.43;9.97;;;16.10;99.90;;;;;;5078523;28;20578;-73
2022/09/23 08:23:25;;;;;;;13.35;9.50;;;16.10;99.90;;;;;;5078687;28;20631;-75
2022/09/23 08:26:03;;;;;;;16.33;9.50;;;16.10;99.90;;;;;;5075975;28;20196;-74
2022/09/23 08:28:32;;;;;;;15.38;9.45;;;16.10;99.90;;;;;;5074930;28;20208;-73
2022/09/23 08:30:59;;;;;;;14.15;10.13;;;16.20;99.90;;;;;;5073309;28;20958;-73
2022/09/23 08:33:26;;;;;;;17.07;10.57;;;16.10;99.90;;;;;;5064724;28;20207;-74
2022/09/23 08:36:01;;;;;;;12.40;10.17;;;16.10;99.90;;;;;;5065574;28;20293;-73
2022/09/23 08:38:28;;;;;;;12.00;9.60;;;16.20;99.90;;;;;;5041437;28;20680;-73
2022/09/23 08:41:22;;;;;;;14.43;9.60;;;16.30;99.90;;;;;;5058877;28;20239;-73
2022/09/23 08:43:58;;;;;;;12.60;10.02;;;16.50;99.90;;;;;;5076949;28;20677;-73
2022/09/23 08:46:34;;;;;;;12.55;9.52;;;16.80;99.90;;;;;;5075795;28;20227;-73
2022/09/23 08:49:01;;;;;;;12.20;8.73;;;17.00;99.90;;;;;;5079706;28;20243;-73
2022/09/23 08:51:39;;;;;;;10.85;8.27;;;17.20;99.90;;;;;;5080551;28;20200;-74
2022/09/23 08:54:10;;;;;;;14.02;8.25;;;17.40;99.90;;;;;;5080200;28;20706;-73
2022/09/23 08:56:41;;;;;;;13.35;9.25;;;17.40;99.90;;;;;;5079478;28;20293;-74
2022/09/23 08:59:19;;;;;;;13.27;9.15;;;17.80;99.90;;;;;;5082776;28;20257;-73
2022/09/23 09:02:14;;;;;;;11.90;8.10;;;17.90;99.90;;;;;;5079268;28;20228;-75
2022/09/23 09:04:48;;;;;;;12.85;9.13;;;18.10;99.90;;;;;;5080748;28;20215;-73
2022/09/23 09:07:20;;;;;;;10.30;8.10;;;18.10;99.90;;;;;;5079523;28;20303;-72
2022/09/23 09:10:18;;;;;;;12.15;8.20;;;18.10;99.90;;;;;;5082757;28;20205;-75
2022/09/23 09:12:49;;;;;;;9.88;7.88;;;18.20;99.90;;;;;;5079956;28;20391;-74
2022/09/23 09:15:22;;;;;;;13.50;8.55;;;18.20;99.90;;;;;;5080819;28;20603;-73
2022/09/23 09:18:19;;;;;;;11.63;8.35;;;18.20;99.90;;;;;;5078905;28;20211;-74
2022/09/23 09:21:12;;;;;;;10.50;8.35;;;18.20;99.90;;;;;;5082368;28;20290;-74
2022/09/23 09:23:56;;;;;;;10.95;8.25;;;18.20;99.90;;;;;;5079556;28;20273;-74
2022/09/23 09:26:26;;;;;;;19.00;8.93;;;18.20;99.90;;;;;;5071892;28;20292;-74
2022/09/23 09:29:04;;;;;;;11.38;8.60;;;18.20;99.90;;;;;;5061176;28;20207;-74
2022/09/23 09:31:51;;;;;;;14.20;8.65;;;18.20;99.90;;;;;;5076674;28;20235;-74
2022/09/23 09:34:44;;;;;;;9.60;7.60;;;18.20;99.90;;;;;;5068761;28;20204;-73
2022/09/23 09:37:45;;;;;;;12.77;9.10;;;18.30;99.90;;;;;;5077946;28;20334;-74
2022/09/23 09:40:15;;;;;;;10.02;8.40;;;18.40;99.90;;;;;;5028861;28;20215;-76
2022/09/23 09:42:46;;;;;;;12.82;8.60;;;18.50;99.90;;;;;;5077828;28;20271;-71
2022/09/23 09:45:39;;;;;;;10.18;9.05;;;18.60;99.90;;;;;;5079659;28;20287;-72
2022/09/23 09:48:16;;;;;;;11.25;7.75;;;18.70;99.90;;;;;;5082643;28;20225;-73
2022/09/23 09:50:48;;;;;;;14.48;8.15;;;18.80;99.90;;;;;;5082163;28;20307;-72
2022/09/23 09:53:22;;;;;;;13.57;7.90;;;18.90;99.90;;;;;;5081977;28;20306;-72
2022/09/23 09:56:05;;;;;;;10.48;7.60;;;19.00;99.90;;;;;;5080558;28;20602;-72
2022/09/23 09:58:47;;;;;;;11.23;7.65;;;19.10;99.90;;;;;;5077408;28;20252;-74
2022/09/23 10:01:30;;;;;;;9.18;7.75;;;19.30;99.90;;;;;;5078429;28;20220;-71
2022/09/23 10:04:00;;;;;;;11.27;7.75;;;19.30;99.90;;;;;;5081772;28;20250;-72
2022/09/23 10:06:31;;;;;;;11.23;7.50;;;19.60;99.90;;;;;;5081950;28;20273;-72
2022/09/23 10:09:07;;;;;;;11.30;8.38;;;19.40;99.90;;;;;;5059993;28;20208;-72
2022/09/23 10:11:34;;;;;;;13.55;7.63;;;19.40;99.90;;;;;;5081494;28;20676;-71
2022/09/23 10:14:18;;;;;;;12.65;7.78;;;19.50;99.90;;;;;;5065516;28;20218;-71
2022/09/23 10:17:01;;;;;;;9.68;7.63;;;19.50;99.90;;;;;;5078352;28;20236;-72
2022/09/23 10:19:28;;;;;;;8.13;6.22;;;19.50;99.90;;;;;;5078594;28;20315;-72
2022/09/23 10:22:03;;;;;;;8.45;6.70;;;19.50;99.90;;;;;;5080197;28;20616;-73
2022/09/23 10:24:35;;;;;;;10.07;6.70;;;19.60;99.90;;;;;;5078363;28;20200;-73
2022/09/23 10:27:08;;;;;;;10.27;6.75;;;19.70;99.90;;;;;;5083853;28;20291;-72
2022/09/23 10:29:49;;;;;;;8.20;6.70;;;19.70;99.90;;;;;;5066500;28;20207;-72
2022/09/23 10:32:19;;;;;;;12.70;7.72;;;19.80;99.90;;;;;;5083981;28;20561;-72
2022/09/23 10:34:56;;;;;;;10.68;6.88;;;19.80;99.90;;;;;;5087881;28;20541;-71
2022/09/23 10:37:37;;;;;;;7.60;6.70;;;19.80;99.90;;;;;;5068030;28;20212;-72
2022/09/23 10:46:44;;;;;;;9.88;6.60;;;19.90;99.90;;;;;;5085975;28;20261;-70
2022/09/23 10:49:23;;;;;;;7.80;6.13;;;19.90;99.90;;;;;;5083927;28;20664;-71
2022/09/23 10:52:14;;;;;;;8.50;6.50;;;20.00;99.90;;;;;;5086461;28;20299;-72
2022/09/23 10:54:41;;;;;;;11.30;7.00;;;20.10;99.90;;;;;;5084112;28;20210;-71
2022/09/23 10:57:42;;;;;;;8.25;5.80;;;20.10;99.90;;;;;;5086782;28;20719;-72
2022/09/23 11:00:24;;;;;;;11.23;7.20;;;20.20;99.90;;;;;;5075746;28;20203;-72
2022/09/23 11:03:16;;;;;;;6.75;5.97;;;20.30;99.90;;;;;;5086329;28;20691;-72
2022/09/23 11:06:23;;;;;;;8.65;6.80;;;20.30;99.90;;;;;;5082517;28;20205;-73
2022/09/23 11:09:02;;;;;;;9.40;6.68;;;20.40;99.90;;;;;;5080226;28;20306;-71
2022/09/23 11:12:06;;;;;;;8.50;6.60;;;20.50;99.90;;;;;;5078697;28;20334;-71
2022/09/23 11:14:51;;;;;;;10.02;7.55;;;20.50;99.90;;;;;;5078897;28;20720;-71
2022/09/23 11:17:28;;;;;;;8.00;7.15;;;20.40;99.90;;;;;;5078760;28;20402;-71
2022/09/23 11:20:04;;;;;;;10.43;7.25;;;20.30;99.90;;;;;;5077973;28;20211;-72
2022/09/23 11:22:44;;;;;;;9.57;7.32;;;20.30;99.90;;;;;;5078333;28;20241;-72
2022/09/23 11:25:32;;;;;;;9.77;8.02;;;20.20;99.90;;;;;;5084392;28;20628;-73
2022/09/23 11:28:12;;;;;;;9.95;8.07;;;20.20;99.90;;;;;;5065054;28;20562;-73
2022/09/23 11:31:13;;;;;;;11.75;8.85;;;20.00;99.90;;;;;;5081158;28;20275;-72
2022/09/23 11:34:01;;;;;;;12.65;8.35;;;20.00;99.90;;;;;;5077265;28;20212;-73
2022/09/23 11:36:45;;;;;;;13.82;8.50;;;19.90;99.90;;;;;;5068571;28;20277;-73
2022/09/23 11:39:18;;;;;;;10.80;8.07;;;19.80;99.90;;;;;;5078699;28;20218;-73
2022/09/23 11:41:48;;;;;;;13.57;7.93;;;19.70;99.90;;;;;;5060811;28;20744;-72
2022/09/23 11:44:57;;;;;;;10.05;7.10;;;19.70;99.90;;;;;;5079123;28;20208;-72
2022/09/23 11:47:41;;;;;;;11.88;7.85;;;19.70;99.90;;;;;;5067553;28;20552;-72
2022/09/23 11:50:28;;;;;;;13.02;8.10;;;19.60;99.90;;;;;;5078440;28;20294;-72
2022/09/23 11:53:22;;;;;;;11.68;8.52;;;19.70;99.90;;;;;;5062219;28;20247;-73
2022/09/23 11:56:02;;;;;;;11.30;7.18;;;19.70;99.90;;;;;;5074313;28;20204;-74
2022/09/23 11:58:38;;;;;;;10.95;7.22;;;19.70;99.90;;;;;;5077870;28;20707;-72
2022/09/23 12:01:13;;;;;;;10.13;7.55;;;19.70;99.90;;;;;;5073832;28;20304;-73
2022/09/23 12:04:05;;;;;;;8.25;6.75;;;19.70;99.90;;;;;;5072335;28;20237;-73
2022/09/23 12:06:51;;;;;;;10.45;6.50;;;19.70;99.90;;;;;;5078135;28;20208;-73
2022/09/23 12:09:24;;;;;;;10.98;6.70;;;19.70;99.90;;;;;;5073456;28;20204;-72
2022/09/23 12:12:27;;;;;;;10.15;6.97;;;19.70;99.90;;;;;;5077820;28;20303;-74
2022/09/23 12:15:03;;;;;;;8.25;6.32;;;19.80;99.90;;;;;;5077495;28;20283;-73
2022/09/23 12:17:43;;;;;;;8.65;6.18;;;19.80;99.90;;;;;;5054885;28;20289;-73
2022/09/23 12:20:30;;;;;;;7.95;6.35;;;19.90;99.90;;;;;;5073779;28;20232;-73
2022/09/23 12:23:08;;;;;;;10.15;6.18;;;20.00;99.90;;;;;;5077668;28;20273;-73
2022/09/23 12:25:46;;;;;;;9.35;5.00;;;20.20;99.90;;;;;;5078184;28;20282;-73
2022/09/23 12:28:21;;;;;;;4.70;2.70;;;20.30;99.90;;;;;;5078288;28;20302;-74
2022/09/23 12:30:50;;;;;;;6.03;2.70;;;20.30;99.90;;;;;;5064848;28;21064;-73
2022/09/23 12:33:30;;;;;;;3.00;2.70;;;20.40;99.90;;;;;;5075656;28;20211;-74
2022/09/23 12:36:08;;;;;;;6.35;3.28;;;20.40;99.90;;;;;;5075310;28;20266;-73
2022/09/23 12:39:02;;;;;;;6.78;2.50;;;20.60;99.90;;;;;;5057598;28;20331;-72
2022/09/23 12:41:36;;;;;;;5.63;2.90;;;20.70;99.90;;;;;;5080232;28;20585;-72
2022/09/23 12:44:36;;;;;;;5.38;3.38;;;20.90;99.90;;;;;;5079395;28;20208;-74
2022/09/23 12:47:24;;;;;;;3.72;2.70;;;20.90;99.90;;;;;;5073140;28;20306;-74
2022/09/23 12:49:55;;;;;;;8.15;3.13;;;21.00;99.90;;;;;;5076724;28;20223;-74
2022/09/23 12:52:31;;;;;;;7.22;3.08;;;21.20;99.90;;;;;;5075929;28;20559;-72
2022/09/23 12:55:23;;;;;;;7.07;3.17;;;21.20;99.90;;;;;;5079919;28;20268;-72
2022/09/23 12:57:50;;;;;;;4.15;3.03;;;21.20;99.90;;;;;;5074873;28;20575;-74
2022/09/23 13:00:24;;;;;;;5.30;2.90;;;21.20;99.90;;;;;;5080804;28;20204;-73
2022/09/23 13:08:48;;;;;;;5.10;2.58;;;21.40;99.90;;;;;;5081332;28;20212;-74
2022/09/23 13:11:24;;;;;;;4.80;3.00;;;21.40;99.90;;;;;;5079889;28;20318;-72
2022/09/23 13:13:51;;;;;;;5.93;2.85;;;21.40;99.90;;;;;;5060542;28;20660;-73
2022/09/23 13:16:28;;;;;;;4.45;2.40;;;21.40;99.90;;;;;;5078468;28;20696;-72
2022/09/23 13:18:57;;;;;;;4.30;2.78;;;21.40;99.90;;;;;;5081609;28;20272;-72
2022/09/23 13:21:42;;;;;;;4.13;2.65;;;21.50;99.90;;;;;;5065136;28;20215;-74
2022/09/23 13:24:13;;;;;;;5.70;3.17;;;21.50;99.90;;;;;;5080632;28;20204;-74
2022/09/23 13:26:45;;;;;;;7.90;3.10;;;21.50;99.90;;;;;;5063319;28;20280;-72
2022/09/23 13:29:41;;;;;;;6.68;2.50;;;21.50;99.90;;;;;;5082475;28;20210;-73
2022/09/23 13:32:19;;;;;;;6.32;2.83;;;21.50;99.90;;;;;;5064743;28;20287;-72